sensor_id;sensor_type;location;lat;lon;timestamp;pressure;altitude;pressure_sealevel;temperature;humidity
84255;BME280;74400;44.692;18.998;2023-12-07T00:01:46;99762.25;;;3.09;75.88
84255;BME280;74400;44.692;18.998;2023-12-07T00:04:12;99757.84;;;3.13;75.11
84255;BME280;74400;44.692;18.998;2023-12-07T00:06:38;99758.53;;;3.18;75.83
84255;BME280;74400;44.692;18.998;2023-12-07T00:09:03;99767.66;;;3.22;74.68
84255;BME280;74400;44.692;18.998;2023-12-07T00:11:29;99763.59;;;3.18;75.79
84255;BME280;74400;44.692;18.998;2023-12-07T00:13:56;99762.59;;;3.22;75.23
84255;BME280;74400;44.692;18.998;2023-12-07T00:16:22;99771.09;;;3.21;75.85
84255;BME280;74400;44.692;18.998;2023-12-07T00:18:47;99767.63;;;3.23;75.81
84255;BME280;74400;44.692;18.998;2023-12-07T00:21:13;99756.50;;;3.26;75.47
84255;BME280;74400;44.692;18.998;2023-12-07T00:23:39;99760.69;;;3.27;75.43
84255;BME280;74400;44.692;18.998;2023-12-07T00:26:04;99769.28;;;3.24;75.16
84255;BME280;74400;44.692;18.998;2023-12-07T00:28:30;99774.31;;;3.26;75.44
84255;BME280;74400;44.692;18.998;2023-12-07T00:30:56;99784.13;;;3.35;75.31
84255;BME280;74400;44.692;18.998;2023-12-07T00:33:22;99779.81;;;3.37;75.21
84255;BME280;74400;44.692;18.998;2023-12-07T00:35:48;99781.47;;;3.38;74.86
84255;BME280;74400;44.692;18.998;2023-12-07T00:38:13;99778.25;;;3.33;75.53
84255;BME280;74400;44.692;18.998;2023-12-07T00:40:39;99776.16;;;3.44;75.38
84255;BME280;74400;44.692;18.998;2023-12-07T00:43:06;99779.22;;;3.52;74.47
84255;BME280;74400;44.692;18.998;2023-12-07T00:45:32;99782.00;;;3.46;73.96
84255;BME280;74400;44.692;18.998;2023-12-07T00:47:58;99783.66;;;3.47;74.51
84255;BME280;74400;44.692;18.998;2023-12-07T00:50:23;99780.00;;;3.55;75.20
84255;BME280;74400;44.692;18.998;2023-12-07T00:52:49;99781.53;;;3.59;74.13
84255;BME280;74400;44.692;18.998;2023-12-07T00:55:15;99783.84;;;3.65;74.22
84255;BME280;74400;44.692;18.998;2023-12-07T00:57:40;99783.25;;;3.80;73.68
84255;BME280;74400;44.692;18.998;2023-12-07T01:00:07;99791.56;;;3.84;73.64
84255;BME280;74400;44.692;18.998;2023-12-07T01:02:33;99787.19;;;3.87;73.73
84255;BME280;74400;44.692;18.998;2023-12-07T01:04:59;99784.91;;;3.81;73.06
84255;BME280;74400;44.692;18.998;2023-12-07T01:07:25;99787.63;;;3.76;73.55
84255;BME280;74400;44.692;18.998;2023-12-07T01:09:51;99786.41;;;3.85;74.13
84255;BME280;74400;44.692;18.998;2023-12-07T01:12:17;99792.53;;;3.81;73.86
84255;BME280;74400;44.692;18.998;2023-12-07T01:14:42;99789.41;;;3.74;74.14
84255;BME280;74400;44.692;18.998;2023-12-07T01:17:08;99783.59;;;3.71;74.18
84255;BME280;74400;44.692;18.998;2023-12-07T01:19:34;99781.13;;;3.69;74.95
84255;BME280;74400;44.692;18.998;2023-12-07T01:21:59;99777.44;;;3.76;74.23
84255;BME280;74400;44.692;18.998;2023-12-07T01:24:25;99775.84;;;3.74;74.25
84255;BME280;74400;44.692;18.998;2023-12-07T01:26:51;99775.72;;;3.77;74.17
84255;BME280;74400;44.692;18.998;2023-12-07T01:29:16;99778.16;;;3.80;74.13
84255;BME280;74400;44.692;18.998;2023-12-07T01:31:43;99778.28;;;3.77;73.83
84255;BME280;74400;44.692;18.998;2023-12-07T01:34:09;99776.47;;;3.79;74.43
84255;BME280;74400;44.692;18.998;2023-12-07T01:36:35;99789.09;;;3.82;74.14
84255;BME280;74400;44.692;18.998;2023-12-07T01:39:01;99784.66;;;3.87;74.29
84255;BME280;74400;44.692;18.998;2023-12-07T01:41:26;99789.78;;;3.86;74.00
84255;BME280;74400;44.692;18.998;2023-12-07T01:43:52;99787.97;;;3.89;74.72
84255;BME280;74400;44.692;18.998;2023-12-07T01:46:18;99794.63;;;3.92;73.87
84255;BME280;74400;44.692;18.998;2023-12-07T01:48:44;99779.31;;;3.93;73.37
84255;BME280;74400;44.692;18.998;2023-12-07T01:51:14;99788.78;;;3.90;73.40
84255;BME280;74400;44.692;18.998;2023-12-07T01:53:40;99786.31;;;3.88;73.71
84255;BME280;74400;44.692;18.998;2023-12-07T01:56:06;99784.53;;;3.90;74.34
84255;BME280;74400;44.692;18.998;2023-12-07T01:58:34;99793.88;;;3.90;74.24
84255;BME280;74400;44.692;18.998;2023-12-07T02:01:01;99789.59;;;3.90;73.92
84255;BME280;74400;44.692;18.998;2023-12-07T02:03:26;99789.25;;;3.99;74.29
84255;BME280;74400;44.692;18.998;2023-12-07T02:05:54;99797.66;;;4.01;73.51
84255;BME280;74400;44.692;18.998;2023-12-07T02:08:20;99792.91;;;3.92;74.55
84255;BME280;74400;44.692;18.998;2023-12-07T02:10:45;99795.41;;;3.94;73.83
84255;BME280;74400;44.692;18.998;2023-12-07T02:13:11;99802.84;;;3.98;74.16
84255;BME280;74400;44.692;18.998;2023-12-07T02:15:37;99805.34;;;4.00;73.90
84255;BME280;74400;44.692;18.998;2023-12-07T02:23:18;99806.69;;;4.08;73.48
84255;BME280;74400;44.692;18.998;2023-12-07T02:28:44;99814.31;;;4.08;74.17
84255;BME280;74400;44.692;18.998;2023-12-07T02:33:36;99813.97;;;3.96;74.38
84255;BME280;74400;44.692;18.998;2023-12-07T02:36:02;99818.19;;;3.97;74.46
84255;BME280;74400;44.692;18.998;2023-12-07T02:38:28;99820.63;;;4.00;73.96
84255;BME280;74400;44.692;18.998;2023-12-07T02:40:55;99823.59;;;4.10;74.04
84255;BME280;74400;44.692;18.998;2023-12-07T02:43:22;99824.38;;;4.12;73.90
84255;BME280;74400;44.692;18.998;2023-12-07T02:45:48;99812.09;;;4.21;73.32
84255;BME280;74400;44.692;18.998;2023-12-07T02:48:13;99825.59;;;4.23;73.13
84255;BME280;74400;44.692;18.998;2023-12-07T02:50:39;99829.34;;;4.15;73.39
84255;BME280;74400;44.692;18.998;2023-12-07T02:53:05;99832.78;;;4.14;73.52
84255;BME280;74400;44.692;18.998;2023-12-07T02:55:31;99839.28;;;4.21;74.19
84255;BME280;74400;44.692;18.998;2023-12-07T02:57:56;99834.19;;;4.21;73.87
84255;BME280;74400;44.692;18.998;2023-12-07T03:00:22;99830.69;;;4.23;73.44
84255;BME280;74400;44.692;18.998;2023-12-07T03:02:48;99832.59;;;4.18;73.37
84255;BME280;74400;44.692;18.998;2023-12-07T03:05:15;99836.75;;;4.21;73.04
84255;BME280;74400;44.692;18.998;2023-12-07T03:07:41;99838.22;;;4.26;73.29
84255;BME280;74400;44.692;18.998;2023-12-07T03:10:07;99838.31;;;4.23;73.46
84255;BME280;74400;44.692;18.998;2023-12-07T03:12:33;99838.31;;;4.23;73.38
84255;BME280;74400;44.692;18.998;2023-12-07T03:14:58;99842.66;;;4.21;73.32
84255;BME280;74400;44.692;18.998;2023-12-07T03:17:24;99841.75;;;4.22;72.79
84255;BME280;74400;44.692;18.998;2023-12-07T03:19:50;99836.66;;;4.22;73.36
84255;BME280;74400;44.692;18.998;2023-12-07T03:22:15;99844.38;;;4.21;73.16
84255;BME280;74400;44.692;18.998;2023-12-07T03:24:46;99844.63;;;4.15;73.33
84255;BME280;74400;44.692;18.998;2023-12-07T03:27:12;99845.19;;;4.21;73.86
84255;BME280;74400;44.692;18.998;2023-12-07T03:29:37;99857.75;;;4.26;73.02
84255;BME280;74400;44.692;18.998;2023-12-07T03:32:03;99857.84;;;4.23;73.41
84255;BME280;74400;44.692;18.998;2023-12-07T03:34:29;99868.69;;;4.28;73.25
84255;BME280;74400;44.692;18.998;2023-12-07T03:36:54;99866.16;;;4.28;72.50
84255;BME280;74400;44.692;18.998;2023-12-07T03:39:20;99864.50;;;4.27;73.68
84255;BME280;74400;44.692;18.998;2023-12-07T03:41:50;99872.56;;;4.37;73.43
84255;BME280;74400;44.692;18.998;2023-12-07T03:44:16;99871.06;;;4.32;73.16
84255;BME280;74400;44.692;18.998;2023-12-07T03:46:42;99880.94;;;4.40;72.52
84255;BME280;74400;44.692;18.998;2023-12-07T03:49:07;99884.38;;;4.39;73.15
84255;BME280;74400;44.692;18.998;2023-12-07T03:51:33;99885.13;;;4.41;73.22
84255;BME280;74400;44.692;18.998;2023-12-07T03:54:00;99893.78;;;4.37;73.26
84255;BME280;74400;44.692;18.998;2023-12-07T03:56:27;99887.75;;;4.40;73.38
84255;BME280;74400;44.692;18.998;2023-12-07T03:58:53;99890.41;;;4.37;73.16
84255;BME280;74400;44.692;18.998;2023-12-07T04:01:25;99903.44;;;4.29;73.25
84255;BME280;74400;44.692;18.998;2023-12-07T04:03:52;99901.72;;;4.29;73.50
84255;BME280;74400;44.692;18.998;2023-12-07T04:06:18;99891.34;;;4.34;73.20
84255;BME280;74400;44.692;18.998;2023-12-07T04:08:44;99897.13;;;4.38;73.60
84255;BME280;74400;44.692;18.998;2023-12-07T04:13:36;99908.03;;;4.41;73.15
84255;BME280;74400;44.692;18.998;2023-12-07T04:16:02;99906.41;;;4.40;72.86
84255;BME280;74400;44.692;18.998;2023-12-07T04:18:29;99908.44;;;4.32;73.12
84255;BME280;74400;44.692;18.998;2023-12-07T04:20:55;99906.63;;;4.34;73.56
84255;BME280;74400;44.692;18.998;2023-12-07T04:23:20;99921.78;;;4.37;73.90
84255;BME280;74400;44.692;18.998;2023-12-07T04:25:46;99915.94;;;4.35;73.88
84255;BME280;74400;44.692;18.998;2023-12-07T04:28:12;99924.47;;;4.34;73.15
84255;BME280;74400;44.692;18.998;2023-12-07T04:30:38;99921.25;;;4.29;73.76
84255;BME280;74400;44.692;18.998;2023-12-07T04:33:03;99930.31;;;4.36;73.92
84255;BME280;74400;44.692;18.998;2023-12-07T04:35:30;99932.63;;;4.42;73.12
84255;BME280;74400;44.692;18.998;2023-12-07T04:37:56;99929.16;;;4.43;73.11
84255;BME280;74400;44.692;18.998;2023-12-07T04:40:22;99932.63;;;4.42;73.91
84255;BME280;74400;44.692;18.998;2023-12-07T04:42:47;99940.00;;;4.48;73.46
84255;BME280;74400;44.692;18.998;2023-12-07T04:45:13;99942.56;;;4.48;73.13
84255;BME280;74400;44.692;18.998;2023-12-07T04:47:38;99943.56;;;4.44;73.40
84255;BME280;74400;44.692;18.998;2023-12-07T04:50:04;99948.06;;;4.38;73.50
84255;BME280;74400;44.692;18.998;2023-12-07T04:52:30;99953.16;;;4.38;74.07
84255;BME280;74400;44.692;18.998;2023-12-07T04:54:56;99954.00;;;4.38;74.25
84255;BME280;74400;44.692;18.998;2023-12-07T04:57:21;99958.16;;;4.41;73.64
84255;BME280;74400;44.692;18.998;2023-12-07T04:59:47;99959.22;;;4.35;74.52
84255;BME280;74400;44.692;18.998;2023-12-07T05:02:16;99971.22;;;4.31;74.53
84255;BME280;74400;44.692;18.998;2023-12-07T05:04:45;99976.50;;;4.27;74.76
84255;BME280;74400;44.692;18.998;2023-12-07T05:07:12;99985.81;;;4.28;74.68
84255;BME280;74400;44.692;18.998;2023-12-07T05:09:38;99992.53;;;4.29;74.54
84255;BME280;74400;44.692;18.998;2023-12-07T05:12:05;99989.00;;;4.33;74.46
84255;BME280;74400;44.692;18.998;2023-12-07T05:14:31;99988.28;;;4.29;74.55
84255;BME280;74400;44.692;18.998;2023-12-07T05:16:57;100000.09;;;4.32;74.23
84255;BME280;74400;44.692;18.998;2023-12-07T05:19:23;100000.09;;;4.32;74.61
84255;BME280;74400;44.692;18.998;2023-12-07T05:21:49;100001.59;;;4.36;74.64
84255;BME280;74400;44.692;18.998;2023-12-07T05:24:15;99999.53;;;4.46;73.54
84255;BME280;74400;44.692;18.998;2023-12-07T05:26:41;100006.59;;;4.39;74.18
84255;BME280;74400;44.692;18.998;2023-12-07T05:29:08;100007.28;;;4.43;74.20
84255;BME280;74400;44.692;18.998;2023-12-07T05:31:34;100012.03;;;4.30;74.64
84255;BME280;74400;44.692;18.998;2023-12-07T05:34:00;100014.16;;;4.19;75.06
84255;BME280;74400;44.692;18.998;2023-12-07T05:36:26;100014.03;;;4.22;75.72
84255;BME280;74400;44.692;18.998;2023-12-07T05:38:52;100016.34;;;4.28;74.92
84255;BME280;74400;44.692;18.998;2023-12-07T05:41:17;100024.41;;;4.39;74.94
84255;BME280;74400;44.692;18.998;2023-12-07T05:43:43;100016.81;;;4.38;74.24
84255;BME280;74400;44.692;18.998;2023-12-07T05:46:09;100015.88;;;4.40;74.05
84255;BME280;74400;44.692;18.998;2023-12-07T05:48:38;100020.69;;;4.26;75.26
84255;BME280;74400;44.692;18.998;2023-12-07T05:51:04;100016.44;;;4.25;74.79
84255;BME280;74400;44.692;18.998;2023-12-07T05:53:30;100016.75;;;4.17;75.30
84255;BME280;74400;44.692;18.998;2023-12-07T05:55:59;100017.63;;;4.16;75.67
84255;BME280;74400;44.692;18.998;2023-12-07T05:58:24;100015.25;;;4.12;75.27
84255;BME280;74400;44.692;18.998;2023-12-07T06:00:50;100015.38;;;4.08;75.83
84255;BME280;74400;44.692;18.998;2023-12-07T06:03:17;100009.31;;;4.13;76.12
84255;BME280;74400;44.692;18.998;2023-12-07T06:05:54;100010.84;;;4.39;75.44
84255;BME280;74400;44.692;18.998;2023-12-07T06:08:25;100014.63;;;4.50;74.92
84255;BME280;74400;44.692;18.998;2023-12-07T06:10:51;100007.88;;;4.49;74.45
84255;BME280;74400;44.692;18.998;2023-12-07T06:13:16;100008.25;;;4.40;74.18
84255;BME280;74400;44.692;18.998;2023-12-07T06:15:42;100007.81;;;4.29;74.45
